Fort Chipewyan Airport
CYPY : now visible

Airfield :











YOU CAN JOIN US ON...

 
LOGIN :

Register | Disclaimer

   EN    FR    IT 

 









Legend :    VFR   Marginal VFR   IFR   Intensive IFR   Very Intensive IFR
Visi :
Ceiling :
>= 8 km
>= 3000ft
5 to 8 km
1000 to 3000 ft
1500m to 5 km
500 to 1000 ft
800 to 1500m
200 to 500 ft
< 800m
< 200 ft
Symbols :   Thunderstorms  Fog  Heavy snow  Heavy precipitations  Wind > 20 kt






- Airport Elevation : 761 ft
- IATA code : YPY


CYPY - Fort Chipewyan

CURRENT METAR :
  • 220214Z AUTO 30007KT 9SM -SN FEW013 BKN018 BKN026 OVC034 M04/M06 A3031 RMK SLP285

EXPIRED METARs :
  • 220200Z AUTO 30009G16KT 9SM -SN SCT013 BKN022 OVC032 M04/M06 A3030 RMK SLP282
  • 220127Z AUTO 29010KT 6SM -SN BKN013 BKN019 OVC023 M04/M05 A3030 RMK SLP282
  • 220109Z AUTO 29010KT 3SM -SN BKN015 OVC023 M04/M05 A3030 RMK SLP279
  • 220052Z AUTO 29007KT 2 1/2SM -SN BKN015 OVC023 M04/M05 A3030 RMK VIS VRB 1 3/4-3 SLP280
  • 220036Z AUTO 29008KT 2 1/4SM -SN BKN014 OVC020 M04/M05 A3029 RMK SLP279
  • 220015Z AUTO 28009KT 2 1/2SM -SN FEW010 BKN016 OVC022 M04/M05 A3029 RMK SLP276
  • 220002Z AUTO 28008KT 2 1/4SM -SN FEW009 OVC022 M04/M05 A3029 RMK SLP276
  • 212359Z AUTO 28007KT 3SM -SN FEW009 SCT015 BKN024 OVC031 M04/M05 A3029 RMK SLP276

TAF TAF CYPY
Valid from the 22 at 00:00 until the 22 at 06:00 UTC


212344Z 2200/2206 28010KT P6SM SCT020 OVC030
TEMPO 2200/2206 2SM -SN BKN020 OVC030 RMK FCST BASED ON AUTO OBS. NXT FCST WILL BE ISSUED AT 221145Z
CZEG FIR / North America



MET'MAP, your aeronautical weather chart ! - Copyright ORBIFLY December 2007 - Disclaimer

ORBIFLY MET'MAP TEAM :

Programming & Development : Alexandra Zaïnal
Concept & original design : Baudouin d'Aumeries
Assistance for programming : Marc-Olivier Méhu
Technical & hardware support : Manuel Goepfert

Contact : metmap@orbifly.com




SOURCES & CREDITS :

   NOAA       Earth
Advisory